sensor_id;sensor_type;location;lat;lon;timestamp;P1;durP1;ratioP1;P2;durP2;ratioP2
28577;SDS011;15769;52.248;15.818;2022-09-09T00:09:47;4.53;;;3.85;;
28577;SDS011;15769;52.248;15.818;2022-09-09T00:14:57;3.53;;;3.22;;
28577;SDS011;15769;52.248;15.818;2022-09-09T00:20:04;3.70;;;3.40;;
28577;SDS011;15769;52.248;15.818;2022-09-09T00:30:53;5.32;;;3.75;;
28577;SDS011;15769;52.248;15.818;2022-09-09T00:35:58;5.82;;;3.20;;
28577;SDS011;15769;52.248;15.818;2022-09-09T00:41:03;4.55;;;3.47;;
28577;SDS011;15769;52.248;15.818;2022-09-09T00:51:39;3.40;;;3.10;;
28577;SDS011;15769;52.248;15.818;2022-09-09T00:57:13;4.72;;;3.50;;
28577;SDS011;15769;52.248;15.818;2022-09-09T01:02:27;4.32;;;3.92;;
28577;SDS011;15769;52.248;15.818;2022-09-09T01:07:42;4.88;;;4.22;;
28577;SDS011;15769;52.248;15.818;2022-09-09T01:12:48;4.10;;;3.70;;
28577;SDS011;15769;52.248;15.818;2022-09-09T01:17:58;4.15;;;3.63;;
28577;SDS011;15769;52.248;15.818;2022-09-09T01:23:14;3.75;;;3.42;;
28577;SDS011;15769;52.248;15.818;2022-09-09T01:28:47;3.85;;;3.30;;
28577;SDS011;15769;52.248;15.818;2022-09-09T01:33:52;3.90;;;3.50;;
28577;SDS011;15769;52.248;15.818;2022-09-09T01:38:55;3.90;;;3.60;;
28577;SDS011;15769;52.248;15.818;2022-09-09T01:44:00;3.53;;;3.22;;
28577;SDS011;15769;52.248;15.818;2022-09-09T01:49:05;3.40;;;3.10;;
28577;SDS011;15769;52.248;15.818;2022-09-09T01:54:09;3.60;;;3.30;;
28577;SDS011;15769;52.248;15.818;2022-09-09T02:09:38;5.65;;;4.30;;
28577;SDS011;15769;52.248;15.818;2022-09-09T02:14:48;4.35;;;3.95;;
28577;SDS011;15769;52.248;15.818;2022-09-09T02:20:14;4.28;;;3.50;;
28577;SDS011;15769;52.248;15.818;2022-09-09T02:25:22;4.70;;;4.30;;
28577;SDS011;15769;52.248;15.818;2022-09-09T02:30:30;4.40;;;4.00;;
28577;SDS011;15769;52.248;15.818;2022-09-09T02:35:33;4.80;;;4.28;;
28577;SDS011;15769;52.248;15.818;2022-09-09T02:40:39;4.70;;;4.07;;
28577;SDS011;15769;52.248;15.818;2022-09-09T02:45:51;3.75;;;3.45;;
28577;SDS011;15769;52.248;15.818;2022-09-09T02:51:12;5.72;;;3.92;;
28577;SDS011;15769;52.248;15.818;2022-09-09T02:56:21;5.30;;;4.00;;
28577;SDS011;15769;52.248;15.818;2022-09-09T03:01:30;4.38;;;3.97;;
28577;SDS011;15769;52.248;15.818;2022-09-09T03:06:33;5.03;;;4.40;;
28577;SDS011;15769;52.248;15.818;2022-09-09T03:11:45;3.90;;;3.60;;
28577;SDS011;15769;52.248;15.818;2022-09-09T03:16:52;4.78;;;4.25;;
28577;SDS011;15769;52.248;15.818;2022-09-09T03:26:58;5.90;;;4.60;;
28577;SDS011;15769;52.248;15.818;2022-09-09T03:37:04;5.28;;;4.78;;
28577;SDS011;15769;52.248;15.818;2022-09-09T03:42:08;4.90;;;4.45;;
28577;SDS011;15769;52.248;15.818;2022-09-09T03:47:11;6.03;;;5.43;;
28577;SDS011;15769;52.248;15.818;2022-09-09T03:52:15;6.10;;;5.50;;
28577;SDS011;15769;52.248;15.818;2022-09-09T03:57:25;5.60;;;5.00;;
28577;SDS011;15769;52.248;15.818;2022-09-09T04:02:28;5.60;;;5.00;;
28577;SDS011;15769;52.248;15.818;2022-09-09T04:07:30;7.25;;;5.70;;
28577;SDS011;15769;52.248;15.818;2022-09-09T04:12:33;5.47;;;4.95;;
28577;SDS011;15769;52.248;15.818;2022-09-09T04:17:37;5.38;;;4.88;;
28577;SDS011;15769;52.248;15.818;2022-09-09T04:22:40;5.90;;;5.30;;
28577;SDS011;15769;52.248;15.818;2022-09-09T04:27:43;5.70;;;4.95;;
28577;SDS011;15769;52.248;15.818;2022-09-09T04:32:46;4.88;;;4.45;;
28577;SDS011;15769;52.248;15.818;2022-09-09T04:37:48;6.70;;;4.80;;
28577;SDS011;15769;52.248;15.818;2022-09-09T04:42:51;7.97;;;5.75;;
28577;SDS011;15769;52.248;15.818;2022-09-09T04:47:54;9.02;;;7.43;;
28577;SDS011;15769;52.248;15.818;2022-09-09T04:53:02;7.75;;;6.47;;
28577;SDS011;15769;52.248;15.818;2022-09-09T04:58:07;7.53;;;6.72;;
28577;SDS011;15769;52.248;15.818;2022-09-09T05:03:11;6.90;;;5.68;;
28577;SDS011;15769;52.248;15.818;2022-09-09T05:08:14;7.90;;;5.82;;
28577;SDS011;15769;52.248;15.818;2022-09-09T05:13:18;6.60;;;5.97;;
28577;SDS011;15769;52.248;15.818;2022-09-09T05:18:21;6.65;;;5.95;;
28577;SDS011;15769;52.248;15.818;2022-09-09T05:23:27;7.07;;;5.65;;
28577;SDS011;15769;52.248;15.818;2022-09-09T05:28:30;5.75;;;5.25;;
28577;SDS011;15769;52.248;15.818;2022-09-09T05:38:37;6.13;;;5.53;;
28577;SDS011;15769;52.248;15.818;2022-09-09T05:43:40;5.50;;;4.93;;
28577;SDS011;15769;52.248;15.818;2022-09-09T05:48:43;5.27;;;4.80;;
28577;SDS011;15769;52.248;15.818;2022-09-09T05:53:48;6.47;;;4.97;;
28577;SDS011;15769;52.248;15.818;2022-09-09T05:58:54;5.72;;;4.50;;
28577;SDS011;15769;52.248;15.818;2022-09-09T06:03:58;5.00;;;4.50;;
28577;SDS011;15769;52.248;15.818;2022-09-09T06:09:00;5.40;;;4.90;;
28577;SDS011;15769;52.248;15.818;2022-09-09T06:14:09;5.55;;;5.05;;
28577;SDS011;15769;52.248;15.818;2022-09-09T06:19:12;6.28;;;5.63;;
28577;SDS011;15769;52.248;15.818;2022-09-09T06:24:17;7.63;;;5.85;;
28577;SDS011;15769;52.248;15.818;2022-09-09T06:29:27;6.03;;;5.43;;
28577;SDS011;15769;52.248;15.818;2022-09-09T06:34:31;5.53;;;4.65;;
28577;SDS011;15769;52.248;15.818;2022-09-09T06:39:35;5.30;;;4.80;;
28577;SDS011;15769;52.248;15.818;2022-09-09T06:44:38;5.72;;;5.22;;
28577;SDS011;15769;52.248;15.818;2022-09-09T06:49:44;4.80;;;4.30;;
28577;SDS011;15769;52.248;15.818;2022-09-09T06:54:50;5.40;;;3.90;;
28577;SDS011;15769;52.248;15.818;2022-09-09T06:59:52;4.65;;;3.60;;
28577;SDS011;15769;52.248;15.818;2022-09-09T07:04:55;3.42;;;3.13;;
28577;SDS011;15769;52.248;15.818;2022-09-09T07:09:59;4.78;;;3.30;;
28577;SDS011;15769;52.248;15.818;2022-09-09T07:15:02;7.72;;;5.25;;
28577;SDS011;15769;52.248;15.818;2022-09-09T07:20:06;10.15;;;5.30;;
28577;SDS011;15769;52.248;15.818;2022-09-09T07:25:13;12.40;;;8.80;;
28577;SDS011;15769;52.248;15.818;2022-09-09T07:30:17;8.68;;;4.70;;
28577;SDS011;15769;52.248;15.818;2022-09-09T07:35:27;8.55;;;7.65;;
28577;SDS011;15769;52.248;15.818;2022-09-09T07:40:50;4.30;;;3.90;;
28577;SDS011;15769;52.248;15.818;2022-09-09T07:45:57;4.00;;;2.38;;
28577;SDS011;15769;52.248;15.818;2022-09-09T07:51:09;2.88;;;2.10;;
28577;SDS011;15769;52.248;15.818;2022-09-09T07:56:16;2.63;;;2.10;;
28577;SDS011;15769;52.248;15.818;2022-09-09T08:01:25;3.38;;;2.00;;
28577;SDS011;15769;52.248;15.818;2022-09-09T08:06:30;9.00;;;5.78;;
28577;SDS011;15769;52.248;15.818;2022-09-09T08:11:39;4.53;;;2.97;;
28577;SDS011;15769;52.248;15.818;2022-09-09T08:16:51;3.67;;;2.17;;
28577;SDS011;15769;52.248;15.818;2022-09-09T08:21:59;3.38;;;2.25;;
28577;SDS011;15769;52.248;15.818;2022-09-09T08:27:06;3.15;;;2.30;;
28577;SDS011;15769;52.248;15.818;2022-09-09T08:32:12;2.17;;;1.85;;
28577;SDS011;15769;52.248;15.818;2022-09-09T08:37:15;2.58;;;1.67;;
28577;SDS011;15769;52.248;15.818;2022-09-09T08:47:36;3.38;;;1.88;;
28577;SDS011;15769;52.248;15.818;2022-09-09T08:53:11;3.35;;;2.05;;
28577;SDS011;15769;52.248;15.818;2022-09-09T08:58:47;1.75;;;1.50;;
28577;SDS011;15769;52.248;15.818;2022-09-09T09:14:41;2.58;;;1.70;;
28577;SDS011;15769;52.248;15.818;2022-09-09T09:19:47;4.70;;;1.90;;
28577;SDS011;15769;52.248;15.818;2022-09-09T09:24:54;3.05;;;1.70;;
28577;SDS011;15769;52.248;15.818;2022-09-09T09:30:18;4.05;;;1.90;;
28577;SDS011;15769;52.248;15.818;2022-09-09T09:35:34;3.28;;;1.58;;
28577;SDS011;15769;52.248;15.818;2022-09-09T09:40:49;2.78;;;1.50;;
28577;SDS011;15769;52.248;15.818;2022-09-09T09:45:56;3.63;;;1.30;;
28577;SDS011;15769;52.248;15.818;2022-09-09T09:51:21;3.65;;;1.30;;
28577;SDS011;15769;52.248;15.818;2022-09-09T09:56:28;3.22;;;1.40;;
28577;SDS011;15769;52.248;15.818;2022-09-09T10:02:05;2.63;;;1.25;;
28577;SDS011;15769;52.248;15.818;2022-09-09T10:07:17;4.47;;;1.30;;
28577;SDS011;15769;52.248;15.818;2022-09-09T10:17:53;2.78;;;1.42;;
28577;SDS011;15769;52.248;15.818;2022-09-09T10:39:38;3.30;;;1.20;;
28577;SDS011;15769;52.248;15.818;2022-09-09T10:55:55;8.52;;;7.15;;
28577;SDS011;15769;52.248;15.818;2022-09-09T11:01:01;2.33;;;1.52;;
28577;SDS011;15769;52.248;15.818;2022-09-09T11:06:36;2.00;;;1.17;;
28577;SDS011;15769;52.248;15.818;2022-09-09T11:11:54;4.97;;;1.20;;
28577;SDS011;15769;52.248;15.818;2022-09-09T11:17:03;4.85;;;1.50;;
28577;SDS011;15769;52.248;15.818;2022-09-09T11:38:57;2.78;;;1.55;;
28577;SDS011;15769;52.248;15.818;2022-09-09T11:44:16;3.00;;;1.52;;
28577;SDS011;15769;52.248;15.818;2022-09-09T11:49:26;4.10;;;1.70;;
28577;SDS011;15769;52.248;15.818;2022-09-09T11:54:46;2.75;;;1.40;;
28577;SDS011;15769;52.248;15.818;2022-09-09T11:59:51;2.97;;;1.60;;
28577;SDS011;15769;52.248;15.818;2022-09-09T12:15:23;4.03;;;1.60;;
28577;SDS011;15769;52.248;15.818;2022-09-09T12:20:33;2.97;;;1.40;;
28577;SDS011;15769;52.248;15.818;2022-09-09T12:31:06;2.78;;;1.27;;
28577;SDS011;15769;52.248;15.818;2022-09-09T12:36:16;4.22;;;1.40;;
28577;SDS011;15769;52.248;15.818;2022-09-09T12:41:22;3.08;;;1.38;;
28577;SDS011;15769;52.248;15.818;2022-09-09T12:51:44;2.80;;;1.20;;
28577;SDS011;15769;52.248;15.818;2022-09-09T12:56:46;5.03;;;1.90;;
28577;SDS011;15769;52.248;15.818;2022-09-09T13:01:57;2.10;;;1.70;;
28577;SDS011;15769;52.248;15.818;2022-09-09T13:07:06;3.28;;;1.55;;
28577;SDS011;15769;52.248;15.818;2022-09-09T13:12:16;2.53;;;1.48;;
28577;SDS011;15769;52.248;15.818;2022-09-09T13:17:24;2.92;;;1.63;;
28577;SDS011;15769;52.248;15.818;2022-09-09T13:22:30;2.90;;;1.55;;
28577;SDS011;15769;52.248;15.818;2022-09-09T13:27:40;2.25;;;1.33;;
28577;SDS011;15769;52.248;15.818;2022-09-09T13:32:44;2.17;;;1.20;;
28577;SDS011;15769;52.248;15.818;2022-09-09T13:37:46;2.28;;;1.00;;
28577;SDS011;15769;52.248;15.818;2022-09-09T13:42:52;3.58;;;1.30;;
28577;SDS011;15769;52.248;15.818;2022-09-09T13:47:57;1.65;;;1.20;;
28577;SDS011;15769;52.248;15.818;2022-09-09T13:53:10;2.75;;;1.42;;
28577;SDS011;15769;52.248;15.818;2022-09-09T13:58:16;2.78;;;1.25;;
28577;SDS011;15769;52.248;15.818;2022-09-09T14:03:20;2.63;;;2.13;;
28577;SDS011;15769;52.248;15.818;2022-09-09T14:13:26;3.85;;;3.45;;
28577;SDS011;15769;52.248;15.818;2022-09-09T14:18:30;5.72;;;1.83;;
28577;SDS011;15769;52.248;15.818;2022-09-09T14:23:32;1.50;;;1.40;;
28577;SDS011;15769;52.248;15.818;2022-09-09T14:28:35;2.80;;;1.25;;
28577;SDS011;15769;52.248;15.818;2022-09-09T14:33:56;2.00;;;1.20;;
28577;SDS011;15769;52.248;15.818;2022-09-09T14:38:59;2.10;;;1.10;;
28577;SDS011;15769;52.248;15.818;2022-09-09T14:44:04;2.55;;;1.40;;
28577;SDS011;15769;52.248;15.818;2022-09-09T14:49:06;2.08;;;1.30;;
28577;SDS011;15769;52.248;15.818;2022-09-09T14:54:08;4.30;;;2.90;;
28577;SDS011;15769;52.248;15.818;2022-09-09T14:59:10;7.45;;;4.82;;
28577;SDS011;15769;52.248;15.818;2022-09-09T15:04:13;3.50;;;1.60;;
28577;SDS011;15769;52.248;15.818;2022-09-09T15:09:16;7.85;;;5.00;;
28577;SDS011;15769;52.248;15.818;2022-09-09T15:14:20;12.30;;;6.97;;
28577;SDS011;15769;52.248;15.818;2022-09-09T15:19:26;11.75;;;6.55;;
28577;SDS011;15769;52.248;15.818;2022-09-09T15:24:28;19.95;;;9.95;;
28577;SDS011;15769;52.248;15.818;2022-09-09T15:29:30;13.73;;;7.10;;
28577;SDS011;15769;52.248;15.818;2022-09-09T15:34:32;21.10;;;12.15;;
28577;SDS011;15769;52.248;15.818;2022-09-09T15:39:35;14.32;;;8.05;;
28577;SDS011;15769;52.248;15.818;2022-09-09T15:44:40;7.65;;;4.57;;
28577;SDS011;15769;52.248;15.818;2022-09-09T15:49:44;4.88;;;2.50;;
28577;SDS011;15769;52.248;15.818;2022-09-09T15:54:46;2.42;;;1.58;;
28577;SDS011;15769;52.248;15.818;2022-09-09T15:59:48;2.22;;;1.35;;
28577;SDS011;15769;52.248;15.818;2022-09-09T16:04:51;3.65;;;2.00;;
28577;SDS011;15769;52.248;15.818;2022-09-09T16:09:53;2.25;;;1.60;;
28577;SDS011;15769;52.248;15.818;2022-09-09T16:14:56;3.53;;;1.67;;
28577;SDS011;15769;52.248;15.818;2022-09-09T16:19:58;4.05;;;1.55;;
28577;SDS011;15769;52.248;15.818;2022-09-09T16:25:00;1.58;;;1.13;;
28577;SDS011;15769;52.248;15.818;2022-09-09T16:30:04;2.60;;;1.00;;
28577;SDS011;15769;52.248;15.818;2022-09-09T16:35:07;1.35;;;1.02;;
28577;SDS011;15769;52.248;15.818;2022-09-09T16:40:09;1.95;;;1.40;;
28577;SDS011;15769;52.248;15.818;2022-09-09T16:45:11;2.40;;;1.80;;
28577;SDS011;15769;52.248;15.818;2022-09-09T16:55:17;2.65;;;1.73;;
28577;SDS011;15769;52.248;15.818;2022-09-09T17:00:19;4.82;;;2.58;;
28577;SDS011;15769;52.248;15.818;2022-09-09T17:05:22;2.65;;;2.08;;
28577;SDS011;15769;52.248;15.818;2022-09-09T17:10:25;1.88;;;1.50;;
28577;SDS011;15769;52.248;15.818;2022-09-09T17:15:27;2.15;;;1.25;;
28577;SDS011;15769;52.248;15.818;2022-09-09T17:20:30;3.22;;;1.70;;
28577;SDS011;15769;52.248;15.818;2022-09-09T17:25:55;2.45;;;1.90;;
28577;SDS011;15769;52.248;15.818;2022-09-09T17:31:00;5.03;;;2.33;;
28577;SDS011;15769;52.248;15.818;2022-09-09T17:41:15;5.43;;;2.80;;
28577;SDS011;15769;52.248;15.818;2022-09-09T17:46:29;6.18;;;2.83;;
28577;SDS011;15769;52.248;15.818;2022-09-09T17:51:34;4.90;;;2.17;;
28577;SDS011;15769;52.248;15.818;2022-09-09T17:56:38;2.47;;;2.17;;
28577;SDS011;15769;52.248;15.818;2022-09-09T18:06:50;1.95;;;1.40;;
28577;SDS011;15769;52.248;15.818;2022-09-09T18:11:57;2.63;;;1.10;;
28577;SDS011;15769;52.248;15.818;2022-09-09T18:17:01;2.70;;;1.10;;
28577;SDS011;15769;52.248;15.818;2022-09-09T18:22:05;2.47;;;1.30;;
28577;SDS011;15769;52.248;15.818;2022-09-09T18:27:07;3.38;;;1.30;;
28577;SDS011;15769;52.248;15.818;2022-09-09T18:32:10;2.87;;;1.30;;
28577;SDS011;15769;52.248;15.818;2022-09-09T18:37:12;3.72;;;1.35;;
28577;SDS011;15769;52.248;15.818;2022-09-09T18:42:15;4.18;;;2.53;;
28577;SDS011;15769;52.248;15.818;2022-09-09T18:47:18;3.70;;;2.23;;
28577;SDS011;15769;52.248;15.818;2022-09-09T18:57:24;3.92;;;1.80;;
28577;SDS011;15769;52.248;15.818;2022-09-09T19:02:26;3.65;;;1.55;;
28577;SDS011;15769;52.248;15.818;2022-09-09T19:07:30;3.33;;;1.55;;
28577;SDS011;15769;52.248;15.818;2022-09-09T19:12:33;5.18;;;1.92;;
28577;SDS011;15769;52.248;15.818;2022-09-09T19:17:35;4.55;;;1.70;;
28577;SDS011;15769;52.248;15.818;2022-09-09T19:22:38;3.45;;;2.00;;
28577;SDS011;15769;52.248;15.818;2022-09-09T19:27:41;3.60;;;2.20;;
28577;SDS011;15769;52.248;15.818;2022-09-09T19:32:46;3.00;;;1.83;;
28577;SDS011;15769;52.248;15.818;2022-09-09T19:37:56;4.60;;;2.38;;
28577;SDS011;15769;52.248;15.818;2022-09-09T19:43:06;3.58;;;2.08;;
28577;SDS011;15769;52.248;15.818;2022-09-09T19:48:08;3.75;;;2.10;;
28577;SDS011;15769;52.248;15.818;2022-09-09T19:53:11;4.50;;;2.00;;
28577;SDS011;15769;52.248;15.818;2022-09-09T19:58:13;3.13;;;1.77;;
28577;SDS011;15769;52.248;15.818;2022-09-09T20:03:15;4.27;;;2.77;;
28577;SDS011;15769;52.248;15.818;2022-09-09T20:08:21;3.63;;;2.67;;
28577;SDS011;15769;52.248;15.818;2022-09-09T20:13:23;5.27;;;3.00;;
28577;SDS011;15769;52.248;15.818;2022-09-09T20:18:26;6.57;;;3.90;;
28577;SDS011;15769;52.248;15.818;2022-09-09T20:23:32;6.85;;;4.65;;
28577;SDS011;15769;52.248;15.818;2022-09-09T20:28:35;5.88;;;3.85;;
28577;SDS011;15769;52.248;15.818;2022-09-09T20:33:40;5.40;;;3.15;;
28577;SDS011;15769;52.248;15.818;2022-09-09T20:38:47;4.90;;;3.22;;
28577;SDS011;15769;52.248;15.818;2022-09-09T20:43:56;7.10;;;3.47;;
28577;SDS011;15769;52.248;15.818;2022-09-09T20:49:00;3.88;;;2.85;;
28577;SDS011;15769;52.248;15.818;2022-09-09T20:54:05;3.90;;;2.72;;
28577;SDS011;15769;52.248;15.818;2022-09-09T20:59:12;4.60;;;2.30;;
28577;SDS011;15769;52.248;15.818;2022-09-09T21:04:17;3.03;;;2.10;;
28577;SDS011;15769;52.248;15.818;2022-09-09T21:09:20;4.55;;;2.80;;
28577;SDS011;15769;52.248;15.818;2022-09-09T21:14:25;4.53;;;2.75;;
28577;SDS011;15769;52.248;15.818;2022-09-09T21:19:28;7.20;;;3.28;;
28577;SDS011;15769;52.248;15.818;2022-09-09T21:24:33;5.72;;;2.97;;
28577;SDS011;15769;52.248;15.818;2022-09-09T21:29:35;4.67;;;3.00;;
28577;SDS011;15769;52.248;15.818;2022-09-09T21:34:37;4.20;;;2.80;;
28577;SDS011;15769;52.248;15.818;2022-09-09T21:39:44;4.88;;;2.58;;
28577;SDS011;15769;52.248;15.818;2022-09-09T21:44:49;4.45;;;2.50;;
28577;SDS011;15769;52.248;15.818;2022-09-09T21:49:51;5.40;;;2.90;;
28577;SDS011;15769;52.248;15.818;2022-09-09T21:54:53;5.30;;;2.50;;
28577;SDS011;15769;52.248;15.818;2022-09-09T21:59:58;2.97;;;2.05;;
28577;SDS011;15769;52.248;15.818;2022-09-09T22:05:01;3.97;;;2.03;;
28577;SDS011;15769;52.248;15.818;2022-09-09T22:10:03;4.10;;;2.00;;
28577;SDS011;15769;52.248;15.818;2022-09-09T22:15:06;3.53;;;1.88;;
28577;SDS011;15769;52.248;15.818;2022-09-09T22:25:13;6.05;;;2.10;;
28577;SDS011;15769;52.248;15.818;2022-09-09T22:30:15;3.42;;;2.10;;
28577;SDS011;15769;52.248;15.818;2022-09-09T22:40:21;2.80;;;2.20;;
28577;SDS011;15769;52.248;15.818;2022-09-09T22:45:23;3.17;;;2.08;;
28577;SDS011;15769;52.248;15.818;2022-09-09T22:50:26;4.17;;;2.37;;
28577;SDS011;15769;52.248;15.818;2022-09-09T22:55:29;4.00;;;2.47;;
28577;SDS011;15769;52.248;15.818;2022-09-09T23:00:31;3.87;;;2.57;;
28577;SDS011;15769;52.248;15.818;2022-09-09T23:05:33;2.70;;;1.93;;
28577;SDS011;15769;52.248;15.818;2022-09-09T23:10:39;4.28;;;2.10;;
28577;SDS011;15769;52.248;15.818;2022-09-09T23:15:44;3.85;;;2.50;;
28577;SDS011;15769;52.248;15.818;2022-09-09T23:20:54;3.97;;;2.47;;
28577;SDS011;15769;52.248;15.818;2022-09-09T23:26:02;5.85;;;2.85;;
28577;SDS011;15769;52.248;15.818;2022-09-09T23:31:07;5.90;;;2.80;;
28577;SDS011;15769;52.248;15.818;2022-09-09T23:36:15;3.95;;;2.92;;
28577;SDS011;15769;52.248;15.818;2022-09-09T23:41:19;4.38;;;2.80;;
28577;SDS011;15769;52.248;15.818;2022-09-09T23:46:23;3.95;;;2.47;;
28577;SDS011;15769;52.248;15.818;2022-09-09T23:51:29;4.28;;;2.70;;
